createdAt,value
2022-09-15T00:00:42.374Z,992.1306152
2022-09-15T00:02:37.761Z,992.1709595
2022-09-15T00:03:39.757Z,992.1122437
2022-09-15T00:04:34.002Z,992.0510254
2022-09-15T00:05:35.902Z,992.2424316
2022-09-15T00:06:32.373Z,992.2424316
2022-09-15T00:08:28.981Z,992.1863403
2022-09-15T00:09:26.142Z,992.2498169
2022-09-15T00:10:34.085Z,992.2338257
2022-09-15T00:12:20.608Z,992.2296753
2022-09-15T00:13:01.997Z,992.1795044
2022-09-15T00:14:03.435Z,992.2380981
2022-09-15T00:15:03.283Z,992.232666
2022-09-15T00:16:06.668Z,992.2374878
2022-09-15T00:18:06.079Z,992.1893921
2022-09-15T00:19:11.607Z,992.1758423
2022-09-15T00:20:14.074Z,992.1437378
2022-09-15T00:21:13.503Z,992.2443237
2022-09-15T00:23:13.061Z,992.2331543
2022-09-15T00:24:16.725Z,992.182373
2022-09-15T00:25:13.088Z,992.1662598
2022-09-15T00:26:14.089Z,992.1766968
2022-09-15T00:28:13.463Z,992.1688232
2022-09-15T00:29:08.750Z,992.1606445
2022-09-15T00:30:10.301Z,992.107605
2022-09-15T00:31:08.633Z,992.1101685
2022-09-15T00:32:10.465Z,992.0996704
2022-09-15T00:33:15.448Z,992.1550903
2022-09-15T00:34:19.072Z,992.1229858
2022-09-15T00:35:13.484Z,992.088501
2022-09-15T00:36:14.079Z,992.1149902
2022-09-15T00:37:20.567Z,992.1815796
2022-09-15T00:38:21.208Z,992.1415405
2022-09-15T00:39:19.160Z,992.1278076
2022-09-15T00:40:17.188Z,992.1116943
2022-09-15T00:41:18.732Z,992.1592407
2022-09-15T00:43:21.299Z,992.0635376
2022-09-15T00:44:20.300Z,992.0474854
2022-09-15T00:46:07.054Z,992.0370483
2022-09-15T00:47:49.649Z,992.0097046
2022-09-15T00:48:46.961Z,992.0286865
2022-09-15T00:49:46.883Z,992.0446777
2022-09-15T00:50:45.940Z,992.0126343
2022-09-15T00:52:44.476Z,991.8848267
2022-09-15T00:53:48.261Z,991.9428101
2022-09-15T00:54:45.065Z,991.9293213
2022-09-15T00:55:45.526Z,991.9767456
2022-09-15T00:57:45.766Z,991.9525146
2022-09-15T00:58:45.246Z,991.8778076
2022-09-15T00:59:42.540Z,991.9783325
2022-09-15T01:00:43.526Z,991.946228
2022-09-15T01:01:39.099Z,992.0075073
2022-09-15T01:03:40.767Z,992.0097046
2022-09-15T01:04:43.763Z,991.9118042
2022-09-15T01:05:40.794Z,991.9865723
2022-09-15T01:06:40.261Z,991.9921875
2022-09-15T01:08:37.457Z,991.946228
2022-09-15T01:09:43.920Z,992.0549316
2022-09-15T01:10:46.411Z,991.9985962
2022-09-15T01:12:41.512Z,991.9664307
2022-09-15T01:13:39.057Z,991.968689
2022-09-15T01:14:38.712Z,992.0609131
2022-09-15T01:15:34.276Z,991.9678955
2022-09-15T01:16:34.493Z,992.0579834
2022-09-15T01:17:38.108Z,992.0923462
2022-09-15T01:18:30.326Z,991.9727173
2022-09-15T01:19:33.692Z,992.0545044
2022-09-15T01:20:37.618Z,991.9428101
2022-09-15T01:21:31.971Z,992.0915527
2022-09-15T01:23:26.990Z,991.9880371
2022-09-15T01:25:13.284Z,992.0072021
2022-09-15T01:25:55.446Z,992.0079956
2022-09-15T01:27:50.435Z,991.9604492
2022-09-15T01:28:48.932Z,992.0079956
2022-09-15T01:29:48.142Z,991.9783325
2022-09-15T01:30:45.676Z,991.9645386
2022-09-15T01:32:41.904Z,992.0250244
2022-09-15T01:33:40.869Z,992.1068726
2022-09-15T01:34:38.181Z,992.0668945
2022-09-15T01:35:40.238Z,992.0264893
2022-09-15T01:36:34.586Z,992.0981445
2022-09-15T01:38:30.413Z,992.0473633
2022-09-15T01:39:33.115Z,992.041748
2022-09-15T01:40:25.025Z,992.1212769
2022-09-15T01:41:29.791Z,992.1134644
2022-09-15T01:43:32.524Z,992.0443115
2022-09-15T01:44:33.397Z,992.0491333
2022-09-15T01:45:30.178Z,992.0675049
2022-09-15T01:46:32.389Z,991.9904785
2022-09-15T01:47:24.664Z,992.0409546
2022-09-15T01:48:24.336Z,992.0595093
2022-09-15T01:49:19.114Z,992.03302
2022-09-15T01:50:18.901Z,992.1495361
2022-09-15T01:51:20.564Z,992.0804443
2022-09-15T01:53:23.605Z,992.043457
2022-09-15T01:54:18.559Z,992.008728
2022-09-15T01:55:21.780Z,992.0353394
2022-09-15T01:56:13.501Z,992.1309204
2022-09-15T01:58:07.384Z,992.0595093
2022-09-15T01:59:12.398Z,992.0700073
2022-09-15T02:00:05.440Z,992.0353394
2022-09-15T02:01:15.233Z,992.0804443
2022-09-15T02:02:10.466Z,991.9823608
2022-09-15T02:03:11.145Z,992.0296631
2022-09-15T02:04:12.866Z,992.0321655
2022-09-15T02:05:11.573Z,992.0426636
2022-09-15T02:06:14.497Z,992.0449219
2022-09-15T02:07:10.707Z,992.0056763
2022-09-15T02:08:11.232Z,992.1060791
2022-09-15T02:09:10.468Z,992.0739746
2022-09-15T02:10:06.315Z,992.0682983
2022-09-15T02:11:10.881Z,992.1235962
2022-09-15T02:12:03.592Z,992.0923462
2022-09-15T02:13:08.309Z,992.0682983
2022-09-15T02:14:00.306Z,992.0601807
2022-09-15T02:15:02.278Z,992.0970459
2022-09-15T02:15:55.147Z,992.0335693
2022-09-15T02:17:19.934Z,992.0392456
2022-09-15T02:17:59.797Z,992.0818481
2022-09-15T02:18:59.591Z,992.0184326
2022-09-15T02:20:00.937Z,992.0531006
2022-09-15T02:20:57.317Z,992.0048218
2022-09-15T02:22:00.528Z,992.0739746
2022-09-15T02:22:57.480Z,992.0153198
2022-09-15T02:23:57.813Z,992.0440674
2022-09-15T02:24:56.154Z,992.0570068
2022-09-15T02:25:58.450Z,992.0675049
2022-09-15T02:27:01.832Z,992.1018677
2022-09-15T02:28:01.957Z,992.0618896
2022-09-15T02:28:58.361Z,992.0353394
2022-09-15T02:30:01.772Z,992.0697021
2022-09-15T02:30:57.621Z,992.1123657
2022-09-15T02:32:55.035Z,992.1260986
2022-09-15T02:33:57.959Z,992.128418
2022-09-15T02:34:51.437Z,992.1204834
2022-09-15T02:35:54.897Z,992.1470337
2022-09-15T02:37:52.853Z,992.1157227
2022-09-15T02:38:47.111Z,992.1709595
2022-09-15T02:39:49.585Z,992.1526489
2022-09-15T02:40:50.914Z,992.163147
2022-09-15T02:42:50.358Z,992.1204834
2022-09-15T02:43:54.015Z,992.1123657
2022-09-15T02:44:55.930Z,992.1148682
2022-09-15T02:45:53.382Z,992.1170044
2022-09-15T02:46:55.182Z,992.1066895
2022-09-15T02:47:57.851Z,992.0457764
2022-09-15T02:48:55.958Z,992.0296631
2022-09-15T02:49:58.049Z,992.0479736
2022-09-15T02:50:54.044Z,992.0111084
2022-09-15T02:51:58.675Z,992.0513916
2022-09-15T02:53:09.248Z,992.1196899
2022-09-15T02:54:09.395Z,992.1035767
2022-09-15T02:55:13.489Z,992.0979004
2022-09-15T02:56:12.678Z,992.2039185
2022-09-15T02:57:01.452Z,992.1587524
2022-09-15T02:57:42.929Z,992.2126465
2022-09-15T02:58:41.098Z,992.1470337
2022-09-15T02:59:40.974Z,992.2056885
2022-09-15T03:00:42.043Z,992.1709595
2022-09-15T03:01:37.516Z,992.1340332
2022-09-15T03:02:41.851Z,992.1340332
2022-09-15T03:03:38.834Z,992.258728
2022-09-15T03:03:43.048Z,992.258728
2022-09-15T03:04:42.273Z,992.2296753
2022-09-15T03:05:47.252Z,992.2113037
2022-09-15T03:07:53.110Z,992.1848145
2022-09-15T03:08:50.193Z,992.203125
2022-09-15T03:09:50.226Z,992.2321777
2022-09-15T03:10:50.478Z,992.2426758
2022-09-15T03:11:52.332Z,992.2400513
2022-09-15T03:12:48.340Z,992.2321777
2022-09-15T03:13:49.786Z,992.2426758
2022-09-15T03:14:51.526Z,992.2426758
2022-09-15T03:15:52.590Z,992.248291
2022-09-15T03:16:49.459Z,992.2330322
2022-09-15T03:17:56.983Z,992.2304688
2022-09-15T03:18:55.048Z,992.2143555
2022-09-15T03:19:55.031Z,992.1878662
2022-09-15T03:20:54.244Z,992.2595215
2022-09-15T03:22:55.613Z,992.2226563
2022-09-15T03:23:53.771Z,992.2675171
2022-09-15T03:24:53.638Z,992.1878662
2022-09-15T03:25:51.328Z,992.1696167
2022-09-15T03:26:51.806Z,992.246582
2022-09-15T03:27:49.727Z,992.2731323
2022-09-15T03:28:54.299Z,992.236084
2022-09-15T03:29:50.709Z,992.2443848
2022-09-15T03:30:54.317Z,992.2892456
2022-09-15T03:31:49.606Z,992.3190918
2022-09-15T03:32:50.878Z,992.3165894
2022-09-15T03:33:52.724Z,992.2878418
2022-09-15T03:34:50.088Z,992.279541
2022-09-15T03:35:54.399Z,992.3117065
2022-09-15T03:37:50.509Z,992.2860107
2022-09-15T03:38:46.771Z,992.2941895
2022-09-15T03:39:50.661Z,992.2860107
2022-09-15T03:42:23.883Z,992.3481445
2022-09-15T03:42:33.380Z,992.2731934
2022-09-15T03:43:36.217Z,992.2839966
2022-09-15T03:44:36.040Z,992.2372437
2022-09-15T03:45:33.009Z,992.1681519
2022-09-15T03:46:35.818Z,992.2870483
2022-09-15T03:47:34.022Z,992.2227173
2022-09-15T03:48:35.756Z,992.2567139
2022-09-15T03:49:37.663Z,992.2776489
2022-09-15T03:50:41.027Z,992.1785889
2022-09-15T03:51:40.909Z,992.2237549
2022-09-15T03:53:41.531Z,992.2627563
2022-09-15T03:54:39.335Z,992.2306519
2022-09-15T03:55:43.242Z,992.3022461
2022-09-15T03:56:40.352Z,992.336731
2022-09-15T03:58:41.616Z,992.2410889
2022-09-15T03:59:42.587Z,992.2145386
2022-09-15T04:00:43.054Z,992.2884521
2022-09-15T04:01:44.232Z,992.2009888
2022-09-15T04:02:42.186Z,992.1984253
2022-09-15T04:03:51.097Z,992.1431274
2022-09-15T04:04:54.597Z,992.1543579
2022-09-15T04:05:51.479Z,992.1576538
2022-09-15T04:06:50.781Z,992.1715088
2022-09-15T04:07:55.049Z,992.112793
2022-09-15T04:08:52.835Z,992.112793
2022-09-15T04:09:54.822Z,992.1576538
2022-09-15T04:10:53.450Z,992.1071777
2022-09-15T04:12:57.792Z,992.1012573
2022-09-15T04:14:01.522Z,992.0665894
2022-09-15T04:14:56.237Z,992.1035767
2022-09-15T04:17:04.850Z,992.0967407
2022-09-15T04:17:34.101Z,992.0186768
2022-09-15T04:18:36.101Z,992.118042
2022-09-15T04:19:38.984Z,992.0811157
2022-09-15T04:20:40.858Z,992.1710815
2022-09-15T04:21:44.696Z,992.088501
2022-09-15T04:23:45.288Z,992.1143799
2022-09-15T04:24:43.351Z,992.1513062
2022-09-15T04:25:45.092Z,992.2171631
2022-09-15T04:26:43.142Z,992.1906128
2022-09-15T04:28:40.162Z,992.2196655
2022-09-15T04:29:43.671Z,992.2092285
2022-09-15T04:30:42.731Z,992.2623291
2022-09-15T04:31:45.203Z,992.2888794
2022-09-15T04:32:42.312Z,992.1640625
2022-09-15T04:33:43.934Z,992.1793823
2022-09-15T04:34:41.489Z,992.2615356
2022-09-15T04:35:43.653Z,992.1924438
2022-09-15T04:36:44.813Z,992.1659546
2022-09-15T04:38:49.236Z,992.1992188
2022-09-15T04:39:51.764Z,992.1487427
2022-09-15T04:40:47.749Z,992.2122803
2022-09-15T04:41:52.438Z,992.1913452
2022-09-15T04:43:53.194Z,992.2349854
2022-09-15T04:44:49.541Z,992.2454834
2022-09-15T04:45:51.067Z,992.1681519
2022-09-15T04:47:48.798Z,992.2107544
2022-09-15T04:48:51.192Z,992.2324829
2022-09-15T04:49:50.551Z,992.2485352
2022-09-15T04:51:01.363Z,992.145752
2022-09-15T04:53:05.144Z,992.1359253
2022-09-15T04:53:59.796Z,992.1143799
2022-09-15T04:55:02.261Z,992.1673584
2022-09-15T04:56:03.650Z,992.2011108
2022-09-15T04:58:16.350Z,992.2615356
2022-09-15T04:59:14.600Z,992.263855
2022-09-15T05:01:21.098Z,992.2750244
2022-09-15T05:01:43.393Z,992.2316284
2022-09-15T05:03:38.965Z,992.2973633
2022-09-15T05:04:49.020Z,992.2973633
2022-09-15T05:05:44.388Z,992.3101807
2022-09-15T05:06:42.767Z,992.3127441
2022-09-15T05:08:37.434Z,992.3995361
2022-09-15T05:09:32.909Z,992.4043579
2022-09-15T05:10:32.526Z,992.4092407
2022-09-15T05:11:28.635Z,992.3853149
2022-09-15T05:13:23.842Z,992.3875122
2022-09-15T05:14:25.803Z,992.4696655
2022-09-15T05:15:21.252Z,992.3023682
2022-09-15T05:16:21.891Z,992.3901367
2022-09-15T05:18:18.781Z,992.4084473
2022-09-15T05:19:14.363Z,992.3314209
2022-09-15T05:20:16.751Z,992.447998
2022-09-15T05:21:11.017Z,992.3763428
2022-09-15T05:23:04.204Z,992.4615479
2022-09-15T05:24:03.441Z,992.4640503
2022-09-15T05:25:02.440Z,992.5089722
2022-09-15T05:26:10.026Z,992.4929199
2022-09-15T05:28:08.516Z,992.4720459
2022-09-15T05:29:08.976Z,992.4454956
2022-09-15T05:30:32.712Z,992.5515747
2022-09-15T05:30:36.786Z,992.5515747
2022-09-15T05:30:39.758Z,992.5515747
2022-09-15T05:31:08.903Z,992.4857788
2022-09-15T05:33:04.214Z,992.5056152
2022-09-15T05:34:01.339Z,992.5426636
2022-09-15T05:35:01.702Z,992.4309082
2022-09-15T05:35:56.661Z,992.460022
2022-09-15T05:38:19.649Z,992.4623413
2022-09-15T05:39:00.334Z,992.4439087
2022-09-15T05:40:03.121Z,992.5187378
2022-09-15T05:41:01.543Z,992.5161133
2022-09-15T05:42:59.471Z,992.4873657
2022-09-15T05:43:55.813Z,992.489502
2022-09-15T05:44:56.522Z,992.4575195
2022-09-15T05:45:56.657Z,992.4921875
2022-09-15T05:47:52.718Z,992.4575195
2022-09-15T05:48:56.598Z,992.5049438
2022-09-15T05:49:50.681Z,992.5418701
2022-09-15T05:50:49.719Z,992.5340576
2022-09-15T05:51:55.714Z,992.4678955
2022-09-15T05:52:54.378Z,992.5452271
2022-09-15T05:53:50.913Z,992.5557251
2022-09-15T05:54:59.248Z,992.5661011
2022-09-15T05:55:58.156Z,992.5236206
2022-09-15T05:57:59.121Z,992.5340576
2022-09-15T05:58:51.694Z,992.4888306
2022-09-15T05:59:56.033Z,992.4970093
2022-09-15T06:00:48.756Z,992.5474854
2022-09-15T06:01:53.310Z,992.5531006
2022-09-15T06:03:52.817Z,992.5692139
2022-09-15T06:04:53.356Z,992.6570435
2022-09-15T06:05:55.117Z,992.6593018
2022-09-15T06:07:56.704Z,992.6487427
2022-09-15T06:08:58.391Z,992.6730347
2022-09-15T06:09:55.901Z,992.5668945
2022-09-15T06:10:55.207Z,992.6730347
2022-09-15T06:12:57.534Z,992.6417236
2022-09-15T06:13:51.883Z,992.6528931
2022-09-15T06:14:55.233Z,992.6688843
2022-09-15T06:15:57.290Z,992.7299805
2022-09-15T06:17:51.749Z,992.7067261
2022-09-15T06:18:51.371Z,992.7228394
2022-09-15T06:19:46.806Z,992.7145996
2022-09-15T06:20:47.171Z,992.7676392
2022-09-15T06:21:45.133Z,992.7758789
2022-09-15T06:23:45.040Z,992.6986084
2022-09-15T06:23:50.776Z,992.6986084
2022-09-15T06:25:37.505Z,992.7370605
2022-09-15T06:26:21.466Z,992.7537231
2022-09-15T06:28:19.001Z,992.7489014
2022-09-15T06:29:16.236Z,992.7515869
2022-09-15T06:30:15.551Z,992.8599854
2022-09-15T06:31:11.807Z,992.8095093
2022-09-15T06:32:10.806Z,992.8095093
2022-09-15T06:33:06.992Z,992.8465576
2022-09-15T06:34:07.155Z,992.803894
2022-09-15T06:35:03.823Z,992.9631348
2022-09-15T06:36:02.745Z,992.8753052
2022-09-15T06:37:59.602Z,992.8487549
2022-09-15T06:39:01.946Z,992.8487549
2022-09-15T06:39:53.730Z,992.8382568
2022-09-15T06:40:53.388Z,992.9317017
2022-09-15T06:42:01.870Z,992.9107666
2022-09-15T06:42:02.143Z,992.9107666
2022-09-15T06:42:05.904Z,992.9107666
2022-09-15T06:42:47.714Z,992.9138184
2022-09-15T06:43:43.119Z,993.0023193
2022-09-15T06:44:44.370Z,992.920166
2022-09-15T06:45:38.955Z,992.9282837
2022-09-15T06:46:43.061Z,992.920166
2022-09-15T06:48:35.950Z,992.9282837
2022-09-15T06:49:39.947Z,992.9604492
2022-09-15T06:50:38.315Z,992.9981079
2022-09-15T06:51:32.612Z,992.9876709
2022-09-15T06:53:31.569Z,992.9086914
2022-09-15T06:54:30.792Z,993.0493774
2022-09-15T06:55:25.383Z,992.9723511
2022-09-15T06:56:27.169Z,992.9906006
2022-09-15T06:58:28.572Z,992.9932861
2022-09-15T06:59:24.027Z,993.0543213
2022-09-15T07:00:23.885Z,993.0303345
2022-09-15T07:01:19.090Z,993.1365356
2022-09-15T07:03:14.455Z,993.0647583
2022-09-15T07:04:14.157Z,993.0753174
2022-09-15T07:05:11.986Z,993.0673218
2022-09-15T07:06:06.750Z,993.0857544
2022-09-15T07:08:00.747Z,993.1177979
2022-09-15T07:09:05.527Z,993.1444702
2022-09-15T07:09:57.809Z,993.1073608
2022-09-15T07:10:59.201Z,993.0808105
2022-09-15T07:11:51.119Z,993.052002
2022-09-15T07:12:52.359Z,993.1395264
2022-09-15T07:13:47.919Z,993.2828369
2022-09-15T07:15:33.571Z,993.1507568
2022-09-15T07:16:16.982Z,993.145752
2022-09-15T07:17:17.116Z,993.1917114
2022-09-15T07:18:18.821Z,993.2022095
2022-09-15T07:19:15.128Z,993.1514282
2022-09-15T07:20:18.042Z,993.1353149
2022-09-15T07:21:14.474Z,993.1218872
2022-09-15T07:25:40.657Z,993.1467285
2022-09-15T07:26:20.525Z,993.1607666
2022-09-15T07:27:18.796Z,993.1849976
2022-09-15T07:28:20.551Z,993.1923218
2022-09-15T07:29:15.776Z,993.2288818
2022-09-15T07:30:15.900Z,993.2548218
2022-09-15T07:31:11.229Z,993.2890625
2022-09-15T07:33:10.721Z,993.2481079
2022-09-15T07:34:10.679Z,993.3140869
2022-09-15T07:35:06.879Z,993.2818604
2022-09-15T07:36:08.740Z,993.3456421
2022-09-15T07:38:03.133Z,993.2924194
2022-09-15T07:38:56.039Z,993.3376465
2022-09-15T07:39:56.622Z,993.3005981
2022-09-15T07:40:51.768Z,993.2126465
2022-09-15T07:41:50.723Z,993.2232056
2022-09-15T07:43:47.004Z,993.3432617
2022-09-15T07:44:47.819Z,993.3721924
2022-09-15T07:45:44.104Z,993.3826294
2022-09-15T07:46:46.123Z,993.3908691
2022-09-15T07:47:42.509Z,993.4866333
2022-09-15T07:48:41.697Z,993.3721924
2022-09-15T07:49:40.729Z,993.4068604
2022-09-15T07:50:43.527Z,993.4439697
2022-09-15T07:51:35.479Z,993.4495239
2022-09-15T07:53:37.670Z,993.5083008
2022-09-15T07:54:30.483Z,993.4872437
2022-09-15T07:55:32.831Z,993.5299072
2022-09-15T07:56:29.976Z,993.5007935
2022-09-15T07:57:30.028Z,993.4987793
2022-09-15T07:58:26.020Z,993.472168
2022-09-15T07:59:23.148Z,993.4639282
2022-09-15T08:00:25.375Z,993.4927979
2022-09-15T08:01:17.697Z,993.4561157
2022-09-15T08:03:11.993Z,993.3261108
2022-09-15T08:04:11.696Z,993.411377
2022-09-15T08:05:57.147Z,993.3828125
2022-09-15T08:06:39.855Z,993.3915405
2022-09-15T08:08:43.469Z,993.4637451
2022-09-15T08:09:39.869Z,993.5168457
2022-09-15T08:10:38.999Z,993.4742432
2022-09-15T08:11:40.069Z,993.5195313
2022-09-15T08:13:39.194Z,993.5057983
2022-09-15T08:14:38.338Z,993.6226807
2022-09-15T08:15:39.735Z,993.6652832
2022-09-15T08:16:37.976Z,993.569519
2022-09-15T08:17:38.800Z,993.6757813
2022-09-15T08:18:36.786Z,993.6387329
2022-09-15T08:19:37.030Z,993.5960693
2022-09-15T08:20:35.055Z,993.6259155
2022-09-15T08:21:38.819Z,993.633728
2022-09-15T08:23:39.317Z,993.6740723
2022-09-15T08:24:33.752Z,993.6554565
2022-09-15T08:25:34.504Z,993.6981201
2022-09-15T08:26:31.094Z,993.6715088
2022-09-15T08:27:32.174Z,993.7141113
2022-09-15T08:28:28.577Z,993.7246704
2022-09-15T08:29:28.262Z,993.7594604
2022-09-15T08:30:29.720Z,993.8044434
2022-09-15T08:31:26.710Z,993.7327881
2022-09-15T08:33:26.801Z,993.8204956
2022-09-15T08:34:23.338Z,993.8287354
2022-09-15T08:35:28.560Z,993.8181763
2022-09-15T08:36:22.880Z,993.8155518
2022-09-15T08:38:22.332Z,993.8427124
2022-09-15T08:39:25.227Z,993.8587646
2022-09-15T08:40:20.528Z,993.8748169
2022-09-15T08:41:25.726Z,993.8378296
2022-09-15T08:42:20.983Z,993.8781128
2022-09-15T08:43:22.242Z,993.8859253
2022-09-15T08:44:19.133Z,993.8731079
2022-09-15T08:46:03.475Z,993.9187622
2022-09-15T08:46:43.790Z,993.9248657
2022-09-15T08:48:38.703Z,993.9866943
2022-09-15T08:49:50.965Z,993.9414063
2022-09-15T08:49:51.611Z,993.9414063
2022-09-15T08:50:36.667Z,993.9630737
2022-09-15T08:51:31.598Z,993.9313965
2022-09-15T08:52:29.734Z,993.9767456
2022-09-15T08:53:28.159Z,993.9630737
2022-09-15T08:54:24.996Z,993.9656372
2022-09-15T08:55:24.676Z,993.8987427
2022-09-15T08:56:20.850Z,993.9569702
2022-09-15T08:58:15.469Z,994.0739136
2022-09-15T08:59:17.938Z,993.986145
2022-09-15T09:00:11.314Z,994.0843506
2022-09-15T09:01:09.862Z,994.0578003
2022-09-15T09:02:08.302Z,993.9779663
2022-09-15T09:03:04.016Z,994.0046387
2022-09-15T09:04:05.941Z,993.9967041
2022-09-15T09:04:58.291Z,994.0128174
2022-09-15T09:05:56.510Z,994.0101318
2022-09-15T09:06:55.108Z,994.0206909
2022-09-15T09:07:50.383Z,994.0423584
2022-09-15T09:08:52.996Z,994.095459
2022-09-15T09:09:45.091Z,994.0239258
2022-09-15T09:10:43.744Z,993.9840698
2022-09-15T09:11:41.594Z,994.0349731
2022-09-15T09:13:35.706Z,994.0726318
2022-09-15T09:14:34.821Z,994.0594482
2022-09-15T09:15:29.915Z,994.0223389
2022-09-15T09:16:33.016Z,994.0465698
2022-09-15T09:18:17.033Z,994.1218872
2022-09-15T09:18:56.733Z,994.0424805
2022-09-15T09:19:21.259Z,994.074707
2022-09-15T09:20:20.805Z,994.1413574
2022-09-15T09:21:15.313Z,994.0697021
2022-09-15T09:22:14.578Z,994.0801392
2022-09-15T09:23:09.505Z,994.0664673
2022-09-15T09:24:09.195Z,994.0424805
2022-09-15T09:25:21.114Z,994.0343628
2022-09-15T09:25:26.099Z,994.0343628
2022-09-15T09:25:26.792Z,994.0343628
2022-09-15T09:26:08.640Z,994.0609131
2022-09-15T09:26:10.608Z,994.0609131
2022-09-15T09:27:57.095Z,994.1234131
2022-09-15T09:28:56.505Z,994.1234131
2022-09-15T09:29:52.817Z,994.1151733
2022-09-15T09:30:52.770Z,994.1257935
2022-09-15T09:31:47.975Z,994.1468506
2022-09-15T09:33:47.818Z,994.0962524
2022-09-15T09:34:44.521Z,994.1495361
2022-09-15T09:35:39.090Z,994.104126
2022-09-15T09:36:38.469Z,994.104126
2022-09-15T09:38:33.338Z,994.1495361
2022-09-15T09:39:28.500Z,994.1518555
2022-09-15T09:40:27.353Z,994.1334229
2022-09-15T09:41:21.689Z,994.0907593
2022-09-15T09:42:20.488Z,994.1495361
2022-09-15T09:43:22.134Z,994.1550293
2022-09-15T09:44:14.444Z,994.1177979
2022-09-15T09:45:14.011Z,994.048584
2022-09-15T09:46:09.283Z,994.0775146
2022-09-15T09:47:08.417Z,994.0881348
2022-09-15T09:48:03.600Z,994.0109253
2022-09-15T09:49:05.520Z,994.0770264
2022-09-15T09:49:58.130Z,994.0609131
2022-09-15T09:51:00.397Z,994.0876465
2022-09-15T09:51:52.758Z,994.1329956
2022-09-15T09:52:55.073Z,994.1063232
2022-09-15T09:53:48.460Z,994.090332
2022-09-15T09:54:50.119Z,994.1595459
2022-09-15T09:55:42.658Z,994.1595459
2022-09-15T09:56:44.129Z,994.1618652
2022-09-15T09:57:40.678Z,994.1940918
2022-09-15T09:58:37.892Z,994.2393799
2022-09-15T09:59:32.409Z,994.2578125
2022-09-15T10:00:31.088Z,994.1540527
2022-09-15T10:01:28.872Z,994.1724854
2022-09-15T10:03:21.073Z,994.2178345
2022-09-15T10:04:22.092Z,994.1403198
2022-09-15T10:05:58.657Z,994.2022095
2022-09-15T10:06:38.236Z,994.1760864
2022-09-15T10:07:35.217Z,994.0912476
2022-09-15T10:08:35.146Z,994.1363525
2022-09-15T10:09:33.244Z,994.0857544
2022-09-15T10:10:32.707Z,994.0775146
2022-09-15T10:11:29.426Z,994.1389771
2022-09-15T10:12:29.329Z,994.0614624
2022-09-15T10:13:24.898Z,994.1358032
2022-09-15T10:14:24.033Z,994.0609131
2022-09-15T10:15:19.312Z,994.055481
2022-09-15T10:16:18.534Z,994.0021973
2022-09-15T10:17:13.905Z,994.0288086
2022-09-15T10:18:15.630Z,993.9677124
2022-09-15T10:19:08.180Z,993.975647
2022-09-15T10:20:07.565Z,993.9967041
2022-09-15T10:21:02.970Z,993.9411011
2022-09-15T10:22:01.887Z,993.986145
2022-09-15T10:22:57.046Z,993.9411011
2022-09-15T10:23:56.682Z,993.9145508
2022-09-15T10:24:52.429Z,993.9411011
2022-09-15T10:25:59.913Z,993.9145508
2022-09-15T10:26:00.311Z,993.9145508
2022-09-15T10:26:49.795Z,993.9279785
2022-09-15T10:27:44.526Z,993.9365845
2022-09-15T10:28:44.214Z,993.899353
2022-09-15T10:29:40.510Z,993.9420166
2022-09-15T10:30:41.520Z,993.8967285
2022-09-15T10:31:34.517Z,993.9049072
2022-09-15T10:32:33.572Z,993.9104614
2022-09-15T10:33:28.750Z,993.9104614
2022-09-15T10:34:29.044Z,993.8545532
2022-09-15T10:35:25.413Z,993.8866577
2022-09-15T10:36:24.853Z,993.8495483
2022-09-15T10:37:19.498Z,993.9003296
2022-09-15T10:38:18.973Z,993.9536133
2022-09-15T10:39:16.653Z,993.8737793
2022-09-15T10:40:11.521Z,993.8710327
2022-09-15T10:41:12.114Z,993.8233032
2022-09-15T10:42:07.529Z,993.8612671
2022-09-15T10:43:04.892Z,993.8828125
2022-09-15T10:44:08.446Z,993.8748169
2022-09-15T10:45:05.102Z,993.9039307
2022-09-15T10:46:04.669Z,993.9144287
2022-09-15T10:46:59.482Z,993.8638916
2022-09-15T10:48:01.115Z,993.8557129
2022-09-15T10:49:23.799Z,993.9621582
2022-09-15T10:50:05.493Z,993.8717041
2022-09-15T10:51:04.656Z,993.8666992
2022-09-15T10:52:04.595Z,993.9120483
2022-09-15T10:53:59.146Z,993.8904419
2022-09-15T10:54:59.043Z,993.9356079
2022-09-15T10:55:54.325Z,993.96698
2022-09-15T10:56:51.698Z,993.9509277
2022-09-15T10:58:47.058Z,993.982605
2022-09-15T10:59:44.400Z,993.9770508
2022-09-15T11:00:44.245Z,993.9981079
2022-09-15T11:01:43.504Z,994.0168457
2022-09-15T11:03:39.357Z,993.9926758
2022-09-15T11:04:39.539Z,994.0912476
2022-09-15T11:05:36.523Z,994.048584
2022-09-15T11:06:38.961Z,994.0775146
2022-09-15T11:07:34.246Z,994.1068726
2022-09-15T11:08:37.348Z,994.0825806
2022-09-15T11:09:30.678Z,994.0585938
2022-09-15T11:10:35.626Z,994.1755981
2022-09-15T11:11:32.489Z,994.1674805
2022-09-15T11:12:36.375Z,994.2338867
2022-09-15T11:13:31.672Z,994.2283325
2022-09-15T11:14:36.744Z,994.3613892
2022-09-15T11:15:31.404Z,994.4146729
2022-09-15T11:16:32.781Z,994.4170532
2022-09-15T11:17:32.663Z,994.411377
2022-09-15T11:18:29.816Z,994.3659668
2022-09-15T11:19:30.263Z,994.3521729
2022-09-15T11:20:26.608Z,994.4313965
2022-09-15T11:21:29.106Z,994.4573975
2022-09-15T11:23:25.322Z,994.4006958
2022-09-15T11:24:20.541Z,994.4767456
2022-09-15T11:25:19.966Z,994.3939209
2022-09-15T11:26:17.950Z,994.4914551
2022-09-15T11:27:25.995Z,994.4648438
2022-09-15T11:28:25.415Z,994.4642334
2022-09-15T11:29:55.537Z,994.4346924
2022-09-15T11:30:34.943Z,994.4481201
2022-09-15T11:31:33.842Z,994.4885254
2022-09-15T11:33:30.159Z,994.4829712
2022-09-15T11:34:29.237Z,994.5754395
2022-09-15T11:35:25.715Z,994.4185791
2022-09-15T11:36:27.442Z,994.5298462
2022-09-15T11:38:25.601Z,994.5348511
2022-09-15T11:39:20.878Z,994.590332
2022-09-15T11:40:24.946Z,994.5340576
2022-09-15T11:41:19.452Z,994.56073
2022-09-15T11:42:18.956Z,994.5501709
2022-09-15T11:43:13.680Z,994.4678345
2022-09-15T11:44:16.018Z,994.5581055
2022-09-15T11:44:17.034Z,994.5581055
2022-09-15T11:45:11.475Z,994.5236206
2022-09-15T11:46:07.767Z,994.5823364
2022-09-15T11:47:07.808Z,994.5636597
2022-09-15T11:48:09.366Z,994.5823364
2022-09-15T11:49:02.423Z,994.5532227
2022-09-15T11:50:02.184Z,994.5636597
2022-09-15T11:50:57.522Z,994.5161133
2022-09-15T11:51:57.646Z,994.4363403
2022-09-15T11:53:54.282Z,994.5137329
2022-09-15T11:54:55.121Z,994.4606323
2022-09-15T11:55:55.855Z,994.4501343
2022-09-15T11:56:52.327Z,994.4290771